the-globe.com alexa rank chart, the-globe.com alexa rank daily changes

the-globe.com alexa rank chart, the-globe.com alexa rank daily changes

the-globe.com
Actual rank:
570 473

RANK HISTORY

Date Rank Diff
2017/11/19 570 473 +18 128
2017/11/18 552 345 -16 698
2017/11/17 569 043 +9 310
2017/11/16 559 733 +4 804
2017/11/15 554 929 -7 123
2017/11/14 562 052 +5 906
2017/11/13 556 146 +34 125
2017/11/12 522 021 -7 274
2017/11/11 529 295 +18 572
2017/11/10 510 723 -1 454
2017/11/09 512 177 +114
2017/11/08 512 063 +17 704
2017/11/07 494 359 -6 139
2017/11/06 500 498 -569
2017/11/05 501 067 -9 168
2017/11/04 510 235 +8 488
2017/11/03 501 747 -9 498
2017/11/02 511 245 +12 339
2017/11/01 498 906 -10 448
2017/10/31 509 354 +10 685
2017/10/30 498 669 +10 551
2017/10/29 488 118 -32 481
2017/10/28 520 599 +12 548
2017/10/27 508 051 +11 900
2017/10/26 496 151 -169
2017/10/25 496 320 -35 389
2017/10/24 531 709 +6 967
2017/10/23 524 742 -7 136
2017/10/22 531 878 +9 324
2017/10/21 522 554 +7 311
2017/10/20 515 243 +11 894
2017/10/19 503 349 -10 932
2017/10/18 514 281 +146
2017/10/17 514 135 +2 451
2017/10/16 511 684 +7 696
2017/10/14 503 988 -13 580
2017/10/13 517 568 -24 430
2017/10/12 541 998 -232
2017/10/11 542 230 -29 838
2017/10/10 572 068 +16 811
2017/10/09 555 257 +5 023
2017/10/08 550 234 -15 166
2017/10/07 565 400 -196
2017/10/06 565 596 +5 269
2017/10/05 560 327 +5 127
2017/10/04 555 200 -10 496
2017/10/03 565 696 +18 730
2017/10/02 546 966 -13 934
2017/10/01 560 900 -9 057
2017/09/30 569 957 -19 281
2017/09/29 589 238 +20 385
2017/09/28 568 853 -25 424
2017/09/27 594 277 -14 077
2017/09/26 608 354 -9 009
2017/09/25 617 363 +25 892
2017/09/24 591 471 +330
2017/09/23 591 141 -23 315
2017/09/22 614 456 +217
2017/09/20 614 239

WIDGET FOR YOUR SITE

DOMAINS WITH THE NEAREST RANK

Domain Rank
itsesso.com 570 468
superbelfrzy.edu.pl 570 469
master-land.net 570 470
thebigmusicproject.co.uk 570 471
scalefast.com 570 472
the-globe.com 570 473
pc1098.com 570 474
kinetico.com 570 475
hojenomundomilitarstore.com.br 570 476
universitetsforlaget.no 570 477
factorymoparparts.net 570 478

DOMAINS WITH THE NEAREST RANK BY TLD .com

Domain Rank
adsmakin.com 570 458
sowrya.com 570 463
japan-buddhism.com 570 467
itsesso.com 570 468
scalefast.com 570 472
the-globe.com 570 473
pc1098.com 570 474
kinetico.com 570 475
ljepota-i-zdravlje.com 570 485
trw.com 570 487
iluve.com 570 491